sensor_id;sensor_type;location;lat;lon;timestamp;P1;durP1;ratioP1;P2;durP2;ratioP2
51981;SDS011;37998;53.416;6.730;2023-05-07T00:00:05;24.92;;;19.02;;
51981;SDS011;37998;53.416;6.730;2023-05-07T00:02:34;24.33;;;18.77;;
51981;SDS011;37998;53.416;6.730;2023-05-07T00:05:01;23.42;;;19.20;;
51981;SDS011;37998;53.416;6.730;2023-05-07T00:07:27;25.75;;;19.38;;
51981;SDS011;37998;53.416;6.730;2023-05-07T00:09:53;23.55;;;19.42;;
51981;SDS011;37998;53.416;6.730;2023-05-07T00:12:19;28.30;;;20.35;;
51981;SDS011;37998;53.416;6.730;2023-05-07T00:14:45;29.02;;;22.15;;
51981;SDS011;37998;53.416;6.730;2023-05-07T00:17:11;28.38;;;21.45;;
51981;SDS011;37998;53.416;6.730;2023-05-07T00:19:37;27.40;;;20.83;;
51981;SDS011;37998;53.416;6.730;2023-05-07T00:22:03;29.52;;;22.10;;
51981;SDS011;37998;53.416;6.730;2023-05-07T00:24:29;25.42;;;21.17;;
51981;SDS011;37998;53.416;6.730;2023-05-07T00:26:55;29.42;;;21.88;;
51981;SDS011;37998;53.416;6.730;2023-05-07T00:29:20;30.02;;;21.83;;
51981;SDS011;37998;53.416;6.730;2023-05-07T00:31:46;30.70;;;23.20;;
51981;SDS011;37998;53.416;6.730;2023-05-07T00:34:15;27.33;;;22.40;;
51981;SDS011;37998;53.416;6.730;2023-05-07T00:36:41;28.15;;;23.35;;
51981;SDS011;37998;53.416;6.730;2023-05-07T00:39:06;32.08;;;24.80;;
51981;SDS011;37998;53.416;6.730;2023-05-07T00:41:32;31.63;;;24.00;;
51981;SDS011;37998;53.416;6.730;2023-05-07T00:43:58;33.53;;;23.98;;
51981;SDS011;37998;53.416;6.730;2023-05-07T00:46:24;33.70;;;23.75;;
51981;SDS011;37998;53.416;6.730;2023-05-07T00:48:51;31.75;;;24.13;;
51981;SDS011;37998;53.416;6.730;2023-05-07T00:51:17;32.10;;;24.38;;
51981;SDS011;37998;53.416;6.730;2023-05-07T00:53:44;31.92;;;23.95;;
51981;SDS011;37998;53.416;6.730;2023-05-07T00:56:10;33.80;;;25.48;;
51981;SDS011;37998;53.416;6.730;2023-05-07T00:58:37;32.97;;;25.02;;
51981;SDS011;37998;53.416;6.730;2023-05-07T01:01:03;30.45;;;24.17;;
51981;SDS011;37998;53.416;6.730;2023-05-07T01:03:29;31.20;;;24.10;;
51981;SDS011;37998;53.416;6.730;2023-05-07T01:05:55;29.05;;;22.88;;
51981;SDS011;37998;53.416;6.730;2023-05-07T01:08:24;31.00;;;24.77;;
51981;SDS011;37998;53.416;6.730;2023-05-07T01:10:53;30.77;;;23.88;;
51981;SDS011;37998;53.416;6.730;2023-05-07T01:13:21;29.80;;;24.17;;
51981;SDS011;37998;53.416;6.730;2023-05-07T01:15:49;31.15;;;24.95;;
51981;SDS011;37998;53.416;6.730;2023-05-07T01:18:15;30.52;;;23.38;;
51981;SDS011;37998;53.416;6.730;2023-05-07T01:20:42;30.83;;;24.27;;
51981;SDS011;37998;53.416;6.730;2023-05-07T01:23:08;29.55;;;24.85;;
51981;SDS011;37998;53.416;6.730;2023-05-07T01:25:36;31.02;;;24.35;;
51981;SDS011;37998;53.416;6.730;2023-05-07T01:28:02;29.60;;;23.05;;
51981;SDS011;37998;53.416;6.730;2023-05-07T01:30:31;34.08;;;23.77;;
51981;SDS011;37998;53.416;6.730;2023-05-07T01:33:04;29.10;;;22.90;;
51981;SDS011;37998;53.416;6.730;2023-05-07T01:35:35;29.70;;;22.80;;
51981;SDS011;37998;53.416;6.730;2023-05-07T01:40:33;31.02;;;23.92;;
51981;SDS011;37998;53.416;6.730;2023-05-07T01:43:00;34.92;;;24.92;;
51981;SDS011;37998;53.416;6.730;2023-05-07T01:45:28;31.25;;;23.58;;
51981;SDS011;37998;53.416;6.730;2023-05-07T01:47:56;32.45;;;24.75;;
51981;SDS011;37998;53.416;6.730;2023-05-07T01:50:24;32.63;;;24.70;;
51981;SDS011;37998;53.416;6.730;2023-05-07T01:52:51;38.00;;;22.65;;
51981;SDS011;37998;53.416;6.730;2023-05-07T01:55:17;30.95;;;23.08;;
51981;SDS011;37998;53.416;6.730;2023-05-07T01:57:43;30.75;;;22.70;;
51981;SDS011;37998;53.416;6.730;2023-05-07T02:00:10;30.02;;;22.77;;
51981;SDS011;37998;53.416;6.730;2023-05-07T02:02:41;29.75;;;23.88;;
51981;SDS011;37998;53.416;6.730;2023-05-07T02:05:16;32.63;;;24.48;;
51981;SDS011;37998;53.416;6.730;2023-05-07T02:07:45;28.58;;;23.48;;
51981;SDS011;37998;53.416;6.730;2023-05-07T02:10:12;33.38;;;25.05;;
51981;SDS011;37998;53.416;6.730;2023-05-07T02:12:38;30.52;;;23.65;;
51981;SDS011;37998;53.416;6.730;2023-05-07T02:15:04;29.60;;;22.60;;
51981;SDS011;37998;53.416;6.730;2023-05-07T02:17:31;30.50;;;23.98;;
51981;SDS011;37998;53.416;6.730;2023-05-07T02:19:58;25.85;;;22.38;;
51981;SDS011;37998;53.416;6.730;2023-05-07T02:22:25;27.52;;;20.95;;
51981;SDS011;37998;53.416;6.730;2023-05-07T02:24:50;32.72;;;23.50;;
51981;SDS011;37998;53.416;6.730;2023-05-07T02:27:16;29.38;;;23.48;;
51981;SDS011;37998;53.416;6.730;2023-05-07T02:29:43;29.27;;;23.45;;
51981;SDS011;37998;53.416;6.730;2023-05-07T02:32:10;31.50;;;23.20;;
51981;SDS011;37998;53.416;6.730;2023-05-07T02:34:36;28.98;;;22.35;;
51981;SDS011;37998;53.416;6.730;2023-05-07T02:37:02;33.17;;;23.55;;
51981;SDS011;37998;53.416;6.730;2023-05-07T02:39:28;32.75;;;24.10;;
51981;SDS011;37998;53.416;6.730;2023-05-07T02:41:55;29.30;;;22.95;;
51981;SDS011;37998;53.416;6.730;2023-05-07T02:44:21;33.70;;;24.33;;
51981;SDS011;37998;53.416;6.730;2023-05-07T02:46:49;29.80;;;23.50;;
51981;SDS011;37998;53.416;6.730;2023-05-07T02:49:16;29.45;;;23.70;;
51981;SDS011;37998;53.416;6.730;2023-05-07T02:51:42;30.65;;;24.88;;
51981;SDS011;37998;53.416;6.730;2023-05-07T02:54:14;31.73;;;23.85;;
51981;SDS011;37998;53.416;6.730;2023-05-07T02:56:40;32.42;;;23.40;;
51981;SDS011;37998;53.416;6.730;2023-05-07T02:59:06;32.70;;;24.00;;
51981;SDS011;37998;53.416;6.730;2023-05-07T03:01:36;31.60;;;24.83;;
51981;SDS011;37998;53.416;6.730;2023-05-07T03:04:05;37.45;;;25.02;;
51981;SDS011;37998;53.416;6.730;2023-05-07T03:06:31;32.33;;;24.67;;
51981;SDS011;37998;53.416;6.730;2023-05-07T03:08:57;34.30;;;24.60;;
51981;SDS011;37998;53.416;6.730;2023-05-07T03:11:23;30.92;;;24.65;;
51981;SDS011;37998;53.416;6.730;2023-05-07T03:13:49;34.35;;;25.02;;
51981;SDS011;37998;53.416;6.730;2023-05-07T03:16:16;33.15;;;24.90;;
51981;SDS011;37998;53.416;6.730;2023-05-07T03:18:42;35.42;;;24.45;;
51981;SDS011;37998;53.416;6.730;2023-05-07T03:21:08;31.40;;;24.02;;
51981;SDS011;37998;53.416;6.730;2023-05-07T03:23:34;31.67;;;24.13;;
51981;SDS011;37998;53.416;6.730;2023-05-07T03:26:00;32.03;;;24.20;;
51981;SDS011;37998;53.416;6.730;2023-05-07T03:28:27;32.67;;;24.40;;
51981;SDS011;37998;53.416;6.730;2023-05-07T03:30:58;32.95;;;24.35;;
51981;SDS011;37998;53.416;6.730;2023-05-07T03:33:24;32.92;;;23.80;;
51981;SDS011;37998;53.416;6.730;2023-05-07T03:35:50;35.28;;;25.95;;
51981;SDS011;37998;53.416;6.730;2023-05-07T03:38:21;31.88;;;24.23;;
51981;SDS011;37998;53.416;6.730;2023-05-07T03:40:47;35.80;;;24.20;;
51981;SDS011;37998;53.416;6.730;2023-05-07T03:43:13;36.45;;;24.77;;
51981;SDS011;37998;53.416;6.730;2023-05-07T03:45:43;39.25;;;25.42;;
51981;SDS011;37998;53.416;6.730;2023-05-07T03:48:14;38.72;;;25.77;;
51981;SDS011;37998;53.416;6.730;2023-05-07T03:50:40;34.60;;;25.40;;
51981;SDS011;37998;53.416;6.730;2023-05-07T03:53:06;35.83;;;24.42;;
51981;SDS011;37998;53.416;6.730;2023-05-07T03:55:37;35.33;;;26.42;;
51981;SDS011;37998;53.416;6.730;2023-05-07T03:58:03;31.63;;;24.45;;
51981;SDS011;37998;53.416;6.730;2023-05-07T04:00:30;33.88;;;24.92;;
51981;SDS011;37998;53.416;6.730;2023-05-07T04:02:59;29.55;;;23.50;;
51981;SDS011;37998;53.416;6.730;2023-05-07T04:05:28;31.75;;;23.98;;
51981;SDS011;37998;53.416;6.730;2023-05-07T04:07:58;34.70;;;25.65;;
51981;SDS011;37998;53.416;6.730;2023-05-07T04:10:30;35.78;;;27.35;;
51981;SDS011;37998;53.416;6.730;2023-05-07T04:12:59;31.65;;;25.40;;
51981;SDS011;37998;53.416;6.730;2023-05-07T04:15:25;31.33;;;25.17;;
51981;SDS011;37998;53.416;6.730;2023-05-07T04:17:51;33.22;;;24.25;;
51981;SDS011;37998;53.416;6.730;2023-05-07T04:20:20;29.95;;;24.73;;
51981;SDS011;37998;53.416;6.730;2023-05-07T04:22:51;30.35;;;24.42;;
51981;SDS011;37998;53.416;6.730;2023-05-07T04:25:17;26.75;;;22.38;;
51981;SDS011;37998;53.416;6.730;2023-05-07T04:27:44;30.35;;;23.08;;
51981;SDS011;37998;53.416;6.730;2023-05-07T04:30:11;33.10;;;23.20;;
51981;SDS011;37998;53.416;6.730;2023-05-07T04:32:38;32.38;;;24.10;;
51981;SDS011;37998;53.416;6.730;2023-05-07T04:35:05;26.25;;;22.63;;
51981;SDS011;37998;53.416;6.730;2023-05-07T04:37:31;28.67;;;22.45;;
51981;SDS011;37998;53.416;6.730;2023-05-07T04:39:58;24.98;;;20.92;;
51981;SDS011;37998;53.416;6.730;2023-05-07T04:42:26;29.42;;;22.20;;
51981;SDS011;37998;53.416;6.730;2023-05-07T04:44:52;26.48;;;20.83;;
51981;SDS011;37998;53.416;6.730;2023-05-07T04:47:19;25.60;;;22.05;;
51981;SDS011;37998;53.416;6.730;2023-05-07T04:49:46;28.27;;;23.05;;
51981;SDS011;37998;53.416;6.730;2023-05-07T04:52:12;29.38;;;24.88;;
51981;SDS011;37998;53.416;6.730;2023-05-07T04:54:38;27.67;;;22.98;;
51981;SDS011;37998;53.416;6.730;2023-05-07T04:57:04;28.40;;;23.15;;
51981;SDS011;37998;53.416;6.730;2023-05-07T04:59:31;29.80;;;24.27;;
51981;SDS011;37998;53.416;6.730;2023-05-07T05:01:58;27.52;;;22.23;;
51981;SDS011;37998;53.416;6.730;2023-05-07T05:04:24;26.92;;;22.40;;
51981;SDS011;37998;53.416;6.730;2023-05-07T05:06:50;25.20;;;21.95;;
51981;SDS011;37998;53.416;6.730;2023-05-07T05:09:16;24.50;;;21.38;;
51981;SDS011;37998;53.416;6.730;2023-05-07T05:11:43;27.30;;;21.65;;
51981;SDS011;37998;53.416;6.730;2023-05-07T05:14:09;25.40;;;21.95;;
51981;SDS011;37998;53.416;6.730;2023-05-07T05:16:35;28.08;;;22.40;;
51981;SDS011;37998;53.416;6.730;2023-05-07T05:19:01;27.88;;;22.15;;
51981;SDS011;37998;53.416;6.730;2023-05-07T05:21:28;34.03;;;22.80;;
51981;SDS011;37998;53.416;6.730;2023-05-07T05:23:59;26.63;;;22.33;;
51981;SDS011;37998;53.416;6.730;2023-05-07T05:26:25;27.40;;;22.83;;
51981;SDS011;37998;53.416;6.730;2023-05-07T05:28:51;29.95;;;23.80;;
51981;SDS011;37998;53.416;6.730;2023-05-07T05:31:20;32.60;;;26.05;;
51981;SDS011;37998;53.416;6.730;2023-05-07T05:33:48;35.45;;;27.60;;
51981;SDS011;37998;53.416;6.730;2023-05-07T05:36:14;41.00;;;27.30;;
51981;SDS011;37998;53.416;6.730;2023-05-07T05:38:41;30.67;;;24.90;;
51981;SDS011;37998;53.416;6.730;2023-05-07T05:41:08;27.08;;;21.58;;
51981;SDS011;37998;53.416;6.730;2023-05-07T05:43:35;25.55;;;20.58;;
51981;SDS011;37998;53.416;6.730;2023-05-07T05:46:01;24.00;;;19.42;;
51981;SDS011;37998;53.416;6.730;2023-05-07T05:48:28;23.38;;;19.25;;
51981;SDS011;37998;53.416;6.730;2023-05-07T05:50:55;27.58;;;19.95;;
51981;SDS011;37998;53.416;6.730;2023-05-07T05:53:21;22.50;;;19.10;;
51981;SDS011;37998;53.416;6.730;2023-05-07T05:55:47;23.35;;;20.30;;
51981;SDS011;37998;53.416;6.730;2023-05-07T05:58:13;27.52;;;19.33;;
51981;SDS011;37998;53.416;6.730;2023-05-07T06:00:45;24.80;;;20.35;;
51981;SDS011;37998;53.416;6.730;2023-05-07T06:03:14;25.25;;;21.13;;
51981;SDS011;37998;53.416;6.730;2023-05-07T06:05:41;26.60;;;21.70;;
51981;SDS011;37998;53.416;6.730;2023-05-07T06:08:07;29.00;;;21.83;;
51981;SDS011;37998;53.416;6.730;2023-05-07T06:10:35;23.35;;;19.85;;
51981;SDS011;37998;53.416;6.730;2023-05-07T06:13:03;26.58;;;19.85;;
51981;SDS011;37998;53.416;6.730;2023-05-07T06:15:31;25.55;;;19.75;;
51981;SDS011;37998;53.416;6.730;2023-05-07T06:18:01;25.23;;;20.52;;
51981;SDS011;37998;53.416;6.730;2023-05-07T06:20:28;26.27;;;20.52;;
51981;SDS011;37998;53.416;6.730;2023-05-07T06:22:54;26.95;;;20.90;;
51981;SDS011;37998;53.416;6.730;2023-05-07T06:25:20;27.15;;;21.30;;
51981;SDS011;37998;53.416;6.730;2023-05-07T06:27:46;28.80;;;22.58;;
51981;SDS011;37998;53.416;6.730;2023-05-07T06:30:12;29.05;;;23.65;;
51981;SDS011;37998;53.416;6.730;2023-05-07T06:32:39;30.58;;;23.33;;
51981;SDS011;37998;53.416;6.730;2023-05-07T06:35:06;29.02;;;22.42;;
51981;SDS011;37998;53.416;6.730;2023-05-07T06:37:35;30.38;;;23.77;;
51981;SDS011;37998;53.416;6.730;2023-05-07T06:40:08;32.00;;;24.60;;
51981;SDS011;37998;53.416;6.730;2023-05-07T06:42:37;29.33;;;23.10;;
51981;SDS011;37998;53.416;6.730;2023-05-07T06:45:26;29.40;;;22.70;;
51981;SDS011;37998;53.416;6.730;2023-05-07T06:47:54;29.65;;;21.73;;
51981;SDS011;37998;53.416;6.730;2023-05-07T06:50:21;29.52;;;22.02;;
51981;SDS011;37998;53.416;6.730;2023-05-07T06:52:48;30.55;;;23.48;;
51981;SDS011;37998;53.416;6.730;2023-05-07T06:55:14;28.92;;;21.77;;
51981;SDS011;37998;53.416;6.730;2023-05-07T06:57:40;30.92;;;22.75;;
51981;SDS011;37998;53.416;6.730;2023-05-07T07:00:07;31.70;;;23.15;;
51981;SDS011;37998;53.416;6.730;2023-05-07T07:02:42;29.30;;;22.48;;
51981;SDS011;37998;53.416;6.730;2023-05-07T07:05:09;30.33;;;22.15;;
51981;SDS011;37998;53.416;6.730;2023-05-07T07:07:36;27.88;;;21.60;;
51981;SDS011;37998;53.416;6.730;2023-05-07T07:10:02;28.70;;;22.23;;
51981;SDS011;37998;53.416;6.730;2023-05-07T07:12:30;27.38;;;22.00;;
51981;SDS011;37998;53.416;6.730;2023-05-07T07:14:56;25.88;;;20.73;;
51981;SDS011;37998;53.416;6.730;2023-05-07T07:17:22;28.98;;;21.95;;
51981;SDS011;37998;53.416;6.730;2023-05-07T07:19:48;26.85;;;20.65;;
51981;SDS011;37998;53.416;6.730;2023-05-07T07:22:14;27.02;;;19.70;;
51981;SDS011;37998;53.416;6.730;2023-05-07T07:24:40;26.52;;;20.92;;
51981;SDS011;37998;53.416;6.730;2023-05-07T07:27:09;29.35;;;22.20;;
51981;SDS011;37998;53.416;6.730;2023-05-07T07:29:35;28.48;;;20.92;;
51981;SDS011;37998;53.416;6.730;2023-05-07T07:32:01;26.55;;;20.45;;
51981;SDS011;37998;53.416;6.730;2023-05-07T07:34:28;26.92;;;20.77;;
51981;SDS011;37998;53.416;6.730;2023-05-07T07:36:54;26.63;;;20.77;;
51981;SDS011;37998;53.416;6.730;2023-05-07T07:39:20;25.38;;;20.08;;
51981;SDS011;37998;53.416;6.730;2023-05-07T07:41:49;28.55;;;20.95;;
51981;SDS011;37998;53.416;6.730;2023-05-07T07:44:16;33.35;;;21.33;;
51981;SDS011;37998;53.416;6.730;2023-05-07T07:46:48;27.85;;;21.15;;
51981;SDS011;37998;53.416;6.730;2023-05-07T07:49:15;26.63;;;21.02;;
51981;SDS011;37998;53.416;6.730;2023-05-07T07:51:42;26.77;;;20.63;;
51981;SDS011;37998;53.416;6.730;2023-05-07T07:54:10;28.10;;;22.13;;
51981;SDS011;37998;53.416;6.730;2023-05-07T07:56:36;28.23;;;22.30;;
51981;SDS011;37998;53.416;6.730;2023-05-07T07:59:03;28.80;;;23.02;;
51981;SDS011;37998;53.416;6.730;2023-05-07T08:01:30;30.63;;;23.38;;
51981;SDS011;37998;53.416;6.730;2023-05-07T08:03:57;29.02;;;22.80;;
51981;SDS011;37998;53.416;6.730;2023-05-07T08:06:24;32.08;;;23.77;;
51981;SDS011;37998;53.416;6.730;2023-05-07T08:08:54;30.48;;;22.98;;
51981;SDS011;37998;53.416;6.730;2023-05-07T08:11:21;30.00;;;23.70;;
51981;SDS011;37998;53.416;6.730;2023-05-07T08:13:47;29.38;;;22.52;;
51981;SDS011;37998;53.416;6.730;2023-05-07T08:16:14;30.27;;;24.40;;
51981;SDS011;37998;53.416;6.730;2023-05-07T08:18:41;32.63;;;25.75;;
51981;SDS011;37998;53.416;6.730;2023-05-07T08:21:07;34.15;;;25.38;;
51981;SDS011;37998;53.416;6.730;2023-05-07T08:23:34;33.45;;;25.83;;
51981;SDS011;37998;53.416;6.730;2023-05-07T08:26:00;32.55;;;24.60;;
51981;SDS011;37998;53.416;6.730;2023-05-07T08:28:26;30.55;;;24.65;;
51981;SDS011;37998;53.416;6.730;2023-05-07T08:30:52;33.25;;;25.15;;
51981;SDS011;37998;53.416;6.730;2023-05-07T08:33:18;38.58;;;26.35;;
51981;SDS011;37998;53.416;6.730;2023-05-07T08:35:44;32.30;;;25.38;;
51981;SDS011;37998;53.416;6.730;2023-05-07T08:38:12;32.80;;;25.75;;
51981;SDS011;37998;53.416;6.730;2023-05-07T08:40:38;32.85;;;25.67;;
51981;SDS011;37998;53.416;6.730;2023-05-07T08:43:12;36.35;;;27.50;;
51981;SDS011;37998;53.416;6.730;2023-05-07T08:45:40;32.28;;;26.40;;
51981;SDS011;37998;53.416;6.730;2023-05-07T08:48:10;31.77;;;26.40;;
51981;SDS011;37998;53.416;6.730;2023-05-07T08:50:41;33.67;;;26.40;;
51981;SDS011;37998;53.416;6.730;2023-05-07T08:53:08;31.48;;;24.90;;
51981;SDS011;37998;53.416;6.730;2023-05-07T08:55:34;33.83;;;26.38;;
51981;SDS011;37998;53.416;6.730;2023-05-07T08:58:00;36.97;;;30.30;;
51981;SDS011;37998;53.416;6.730;2023-05-07T09:00:26;33.97;;;27.02;;
51981;SDS011;37998;53.416;6.730;2023-05-07T09:02:55;34.90;;;28.40;;
51981;SDS011;37998;53.416;6.730;2023-05-07T09:05:22;32.25;;;27.90;;
51981;SDS011;37998;53.416;6.730;2023-05-07T09:07:48;31.48;;;25.17;;
51981;SDS011;37998;53.416;6.730;2023-05-07T09:10:14;29.40;;;25.73;;
51981;SDS011;37998;53.416;6.730;2023-05-07T09:12:42;30.67;;;26.00;;
51981;SDS011;37998;53.416;6.730;2023-05-07T09:15:10;29.65;;;25.38;;
51981;SDS011;37998;53.416;6.730;2023-05-07T09:17:37;33.28;;;25.90;;
51981;SDS011;37998;53.416;6.730;2023-05-07T09:20:04;30.20;;;26.05;;
51981;SDS011;37998;53.416;6.730;2023-05-07T09:22:32;27.10;;;23.73;;
51981;SDS011;37998;53.416;6.730;2023-05-07T09:25:02;30.80;;;23.25;;
51981;SDS011;37998;53.416;6.730;2023-05-07T09:27:29;29.10;;;24.02;;
51981;SDS011;37998;53.416;6.730;2023-05-07T09:29:57;31.95;;;26.75;;
51981;SDS011;37998;53.416;6.730;2023-05-07T09:32:24;33.95;;;26.13;;
51981;SDS011;37998;53.416;6.730;2023-05-07T09:34:51;33.80;;;28.33;;
51981;SDS011;37998;53.416;6.730;2023-05-07T09:37:21;31.95;;;28.33;;
51981;SDS011;37998;53.416;6.730;2023-05-07T09:39:48;34.20;;;29.90;;
51981;SDS011;37998;53.416;6.730;2023-05-07T09:42:22;34.58;;;30.95;;
51981;SDS011;37998;53.416;6.730;2023-05-07T09:44:51;35.03;;;29.02;;
51981;SDS011;37998;53.416;6.730;2023-05-07T09:47:21;35.58;;;31.23;;
51981;SDS011;37998;53.416;6.730;2023-05-07T09:49:52;31.45;;;28.15;;
51981;SDS011;37998;53.416;6.730;2023-05-07T09:52:23;35.33;;;31.58;;
51981;SDS011;37998;53.416;6.730;2023-05-07T09:54:54;36.35;;;30.92;;
51981;SDS011;37998;53.416;6.730;2023-05-07T09:57:25;33.50;;;29.90;;
51981;SDS011;37998;53.416;6.730;2023-05-07T09:59:58;30.02;;;26.85;;
51981;SDS011;37998;53.416;6.730;2023-05-07T10:02:30;32.17;;;28.67;;
51981;SDS011;37998;53.416;6.730;2023-05-07T10:05:00;32.72;;;29.25;;
51981;SDS011;37998;53.416;6.730;2023-05-07T10:07:30;32.22;;;28.83;;
51981;SDS011;37998;53.416;6.730;2023-05-07T10:10:03;29.67;;;24.98;;
51981;SDS011;37998;53.416;6.730;2023-05-07T10:12:34;29.25;;;25.98;;
51981;SDS011;37998;53.416;6.730;2023-05-07T10:15:07;29.05;;;26.05;;
51981;SDS011;37998;53.416;6.730;2023-05-07T10:17:35;29.95;;;26.70;;
51981;SDS011;37998;53.416;6.730;2023-05-07T10:20:02;26.38;;;23.48;;
51981;SDS011;37998;53.416;6.730;2023-05-07T10:22:33;23.77;;;21.27;;
51981;SDS011;37998;53.416;6.730;2023-05-07T10:25:16;26.00;;;22.75;;
51981;SDS011;37998;53.416;6.730;2023-05-07T10:27:53;27.17;;;24.30;;
51981;SDS011;37998;53.416;6.730;2023-05-07T10:32:56;28.77;;;25.67;;
51981;SDS011;37998;53.416;6.730;2023-05-07T10:35:32;35.08;;;31.38;;
51981;SDS011;37998;53.416;6.730;2023-05-07T10:38:04;34.03;;;30.40;;
51981;SDS011;37998;53.416;6.730;2023-05-07T10:40:33;30.45;;;27.20;;
51981;SDS011;37998;53.416;6.730;2023-05-07T10:43:04;32.55;;;29.05;;
51981;SDS011;37998;53.416;6.730;2023-05-07T10:45:37;34.35;;;30.75;;
51981;SDS011;37998;53.416;6.730;2023-05-07T10:50:38;37.65;;;32.30;;
51981;SDS011;37998;53.416;6.730;2023-05-07T10:55:52;35.67;;;31.77;;
51981;SDS011;37998;53.416;6.730;2023-05-07T10:58:49;33.85;;;30.25;;
51981;SDS011;37998;53.416;6.730;2023-05-07T11:04:36;35.50;;;31.77;;
51981;SDS011;37998;53.416;6.730;2023-05-07T11:07:29;35.08;;;31.38;;
51981;SDS011;37998;53.416;6.730;2023-05-07T11:10:01;34.08;;;30.17;;
51981;SDS011;37998;53.416;6.730;2023-05-07T11:15:09;34.70;;;30.88;;
51981;SDS011;37998;53.416;6.730;2023-05-07T11:17:54;34.55;;;30.58;;
51981;SDS011;37998;53.416;6.730;2023-05-07T11:26:30;29.88;;;26.67;;
51981;SDS011;37998;53.416;6.730;2023-05-07T11:29:14;30.90;;;27.65;;
51981;SDS011;37998;53.416;6.730;2023-05-07T11:31:43;30.50;;;27.23;;
51981;SDS011;37998;53.416;6.730;2023-05-07T11:34:09;30.05;;;26.98;;
51981;SDS011;37998;53.416;6.730;2023-05-07T11:36:41;33.95;;;30.45;;
51981;SDS011;37998;53.416;6.730;2023-05-07T11:39:24;33.83;;;30.42;;
51981;SDS011;37998;53.416;6.730;2023-05-07T11:41:54;35.15;;;31.35;;
51981;SDS011;37998;53.416;6.730;2023-05-07T11:44:20;38.28;;;34.47;;
51981;SDS011;37998;53.416;6.730;2023-05-07T11:46:46;34.35;;;30.75;;
51981;SDS011;37998;53.416;6.730;2023-05-07T11:49:12;32.78;;;29.20;;
51981;SDS011;37998;53.416;6.730;2023-05-07T11:51:38;26.52;;;23.83;;
51981;SDS011;37998;53.416;6.730;2023-05-07T11:54:04;29.65;;;26.55;;
51981;SDS011;37998;53.416;6.730;2023-05-07T11:56:34;27.60;;;24.70;;
51981;SDS011;37998;53.416;6.730;2023-05-07T11:59:01;27.88;;;25.00;;
51981;SDS011;37998;53.416;6.730;2023-05-07T12:01:27;28.27;;;25.45;;
51981;SDS011;37998;53.416;6.730;2023-05-07T12:03:53;28.92;;;25.85;;
51981;SDS011;37998;53.416;6.730;2023-05-07T12:06:19;30.95;;;27.85;;
51981;SDS011;37998;53.416;6.730;2023-05-07T12:08:46;31.40;;;28.35;;
51981;SDS011;37998;53.416;6.730;2023-05-07T12:11:13;34.90;;;31.40;;
51981;SDS011;37998;53.416;6.730;2023-05-07T12:13:46;36.30;;;32.60;;
51981;SDS011;37998;53.416;6.730;2023-05-07T12:16:12;36.35;;;32.75;;
51981;SDS011;37998;53.416;6.730;2023-05-07T12:18:39;38.85;;;34.53;;
51981;SDS011;37998;53.416;6.730;2023-05-07T12:21:06;39.25;;;35.42;;
51981;SDS011;37998;53.416;6.730;2023-05-07T12:23:33;35.53;;;31.92;;
51981;SDS011;37998;53.416;6.730;2023-05-07T12:26:01;32.72;;;29.38;;
51981;SDS011;37998;53.416;6.730;2023-05-07T12:28:29;29.45;;;26.55;;
51981;SDS011;37998;53.416;6.730;2023-05-07T12:30:56;29.55;;;26.65;;
51981;SDS011;37998;53.416;6.730;2023-05-07T12:33:25;25.13;;;22.73;;
51981;SDS011;37998;53.416;6.730;2023-05-07T12:35:54;27.95;;;25.15;;
51981;SDS011;37998;53.416;6.730;2023-05-07T12:38:21;28.90;;;26.00;;
51981;SDS011;37998;53.416;6.730;2023-05-07T12:40:49;24.05;;;21.75;;
51981;SDS011;37998;53.416;6.730;2023-05-07T12:45:42;28.70;;;26.00;;
51981;SDS011;37998;53.416;6.730;2023-05-07T12:48:10;27.27;;;24.67;;
51981;SDS011;37998;53.416;6.730;2023-05-07T12:50:36;28.35;;;25.65;;
51981;SDS011;37998;53.416;6.730;2023-05-07T12:53:05;28.48;;;25.77;;
51981;SDS011;37998;53.416;6.730;2023-05-07T12:55:42;29.88;;;26.77;;
51981;SDS011;37998;53.416;6.730;2023-05-07T12:58:15;29.80;;;27.02;;
51981;SDS011;37998;53.416;6.730;2023-05-07T13:00:46;29.67;;;26.98;;
51981;SDS011;37998;53.416;6.730;2023-05-07T13:03:20;29.65;;;26.98;;
51981;SDS011;37998;53.416;6.730;2023-05-07T13:05:51;32.10;;;29.20;;
51981;SDS011;37998;53.416;6.730;2023-05-07T13:08:28;30.02;;;27.23;;
51981;SDS011;37998;53.416;6.730;2023-05-07T13:10:59;31.33;;;28.52;;
51981;SDS011;37998;53.416;6.730;2023-05-07T13:13:29;32.25;;;29.42;;
51981;SDS011;37998;53.416;6.730;2023-05-07T13:16:00;31.50;;;28.70;;
51981;SDS011;37998;53.416;6.730;2023-05-07T13:18:28;33.50;;;30.50;;
51981;SDS011;37998;53.416;6.730;2023-05-07T13:20:55;31.73;;;28.83;;
51981;SDS011;37998;53.416;6.730;2023-05-07T13:23:21;29.70;;;27.10;;
51981;SDS011;37998;53.416;6.730;2023-05-07T13:25:47;31.13;;;28.17;;
51981;SDS011;37998;53.416;6.730;2023-05-07T13:28:15;29.42;;;26.60;;
51981;SDS011;37998;53.416;6.730;2023-05-07T13:30:42;30.02;;;27.33;;
51981;SDS011;37998;53.416;6.730;2023-05-07T13:33:08;29.40;;;26.73;;
51981;SDS011;37998;53.416;6.730;2023-05-07T13:35:34;27.65;;;25.05;;
51981;SDS011;37998;53.416;6.730;2023-05-07T13:38:00;27.80;;;25.20;;
51981;SDS011;37998;53.416;6.730;2023-05-07T13:40:26;25.75;;;23.33;;
51981;SDS011;37998;53.416;6.730;2023-05-07T13:42:53;25.73;;;23.33;;
51981;SDS011;37998;53.416;6.730;2023-05-07T13:45:19;25.25;;;22.98;;
51981;SDS011;37998;53.416;6.730;2023-05-07T13:47:45;24.25;;;22.08;;
51981;SDS011;37998;53.416;6.730;2023-05-07T13:50:12;27.23;;;24.83;;
51981;SDS011;37998;53.416;6.730;2023-05-07T13:52:41;26.25;;;23.92;;
51981;SDS011;37998;53.416;6.730;2023-05-07T13:55:18;25.77;;;23.17;;
51981;SDS011;37998;53.416;6.730;2023-05-07T13:57:53;27.52;;;24.92;;
51981;SDS011;37998;53.416;6.730;2023-05-07T14:00:24;26.52;;;24.23;;
51981;SDS011;37998;53.416;6.730;2023-05-07T14:02:52;26.70;;;24.33;;
51981;SDS011;37998;53.416;6.730;2023-05-07T14:05:18;26.90;;;24.40;;
51981;SDS011;37998;53.416;6.730;2023-05-07T14:07:48;25.33;;;22.90;;
51981;SDS011;37998;53.416;6.730;2023-05-07T14:10:17;25.98;;;23.48;;
51981;SDS011;37998;53.416;6.730;2023-05-07T14:12:44;25.30;;;23.00;;
51981;SDS011;37998;53.416;6.730;2023-05-07T14:15:12;24.85;;;22.55;;
51981;SDS011;37998;53.416;6.730;2023-05-07T14:17:39;23.55;;;21.48;;
51981;SDS011;37998;53.416;6.730;2023-05-07T14:20:05;23.05;;;21.00;;
51981;SDS011;37998;53.416;6.730;2023-05-07T14:22:35;24.65;;;22.35;;
51981;SDS011;37998;53.416;6.730;2023-05-07T14:25:02;23.48;;;21.45;;
51981;SDS011;37998;53.416;6.730;2023-05-07T14:27:28;23.77;;;21.58;;
51981;SDS011;37998;53.416;6.730;2023-05-07T14:29:54;23.20;;;21.20;;
51981;SDS011;37998;53.416;6.730;2023-05-07T14:32:20;21.98;;;20.17;;
51981;SDS011;37998;53.416;6.730;2023-05-07T14:34:47;22.73;;;20.73;;
51981;SDS011;37998;53.416;6.730;2023-05-07T14:37:13;22.20;;;20.10;;
51981;SDS011;37998;53.416;6.730;2023-05-07T14:39:39;22.52;;;20.35;;
51981;SDS011;37998;53.416;6.730;2023-05-07T14:42:05;21.35;;;19.35;;
51981;SDS011;37998;53.416;6.730;2023-05-07T14:44:34;20.33;;;18.52;;
51981;SDS011;37998;53.416;6.730;2023-05-07T14:47:00;20.63;;;18.65;;
51981;SDS011;37998;53.416;6.730;2023-05-07T14:49:26;18.42;;;16.83;;